Bear Mountain, New York
Current Conditions -  °F | °C
As of 11:45 AM on Friday 31 Oct 2014 (Local Time) from KSWF Reporting Station
Broken Clouds Broken Clouds  
Wind Chill: 46°   Ceiling: 10000
Heat Index: 48°   Visibility: 20mi
Dew Point: 37°   Wind: 6mph
Humidity: 66%   Direction: NA
Pressure: 30"   Gusts: NA
Location:  41.31°N, 73.99°W
Report Text: KSWF 311545Z VRB05KT 20SM SCT045 BKN100 09/03 A3000
Loading
Personal Weather Stations






























Interactive Weather Map
Tropical Storm Tracking
New forecast layout! Learn more

10-Day Weather Forecast

Advertisements
Track Severe Weather on mobile